Time,TemperatureF,DewpointF,PressureIn,WindDirection,WindDirectionDegrees,WindSpeedMPH,WindSpeedGustMPH,Humidity,HourlyPrecipIn,Conditions,Clouds,dailyrainin,SoftwareType,DateUTC
2013-05-16 07:55:00,54.5,53.7,29.76,WNW,283,3.0,3.0,97,0.00,,,0.00,Wunderground v.1.15,2013-05-16 11:55:00,
2013-05-16 08:05:00,55.2,54.4,29.76,WSW,253,3.0,3.0,97,0.00,,,0.00,Wunderground v.1.15,2013-05-16 12:05:00,
2013-05-16 08:15:00,55.9,54.8,29.76,WSW,243,3.0,3.0,96,0.00,,,0.00,Wunderground v.1.15,2013-05-16 12:15:00,
2013-05-16 08:20:00,56.3,54.9,29.76,WNW,283,3.0,3.0,95,0.00,,,0.00,Wunderground v.1.15,2013-05-16 12:20:00,
2013-05-16 08:25:00,56.7,55.3,29.76,WSW,240,3.0,5.0,95,0.00,,,0.00,Wunderground v.1.15,2013-05-16 12:25:00,
2013-05-16 08:30:00,57.1,55.4,29.76,SW,236,3.0,5.0,94,0.00,,,0.00,Wunderground v.1.15,2013-05-16 12:30:00,
2013-05-16 08:35:00,57.5,55.2,29.77,West,271,4.0,5.0,92,0.00,,,0.00,Wunderground v.1.15,2013-05-16 12:35:00,
2013-05-16 08:45:00,58.7,56.1,29.77,SW,233,3.0,4.0,91,0.00,,,0.00,Wunderground v.1.15,2013-05-16 12:45:00,
2013-05-16 08:50:00,59.8,56.9,29.77,SW,229,2.0,3.0,90,0.00,,,0.00,Wunderground v.1.15,2013-05-16 12:50:00,
2013-05-16 08:55:00,60.1,55.9,29.77,SSW,193,2.0,3.0,86,0.00,,,0.00,Wunderground v.1.15,2013-05-16 12:55:00,
2013-05-16 09:00:00,60.1,56.2,29.77,West,280,2.0,2.0,87,0.00,,,0.00,Wunderground v.1.15,2013-05-16 13:00:00,
2013-05-16 09:05:00,60.3,56.4,29.77,SSW,195,1.0,3.0,87,0.00,,,0.00,Wunderground v.1.15,2013-05-16 13:05:00,
2013-05-16 09:10:00,59.9,56.0,29.77,WSW,256,3.0,6.0,87,0.00,,,0.00,Wunderground v.1.15,2013-05-16 13:10:00,
2013-05-16 09:15:00,59.4,55.8,29.78,WSW,240,4.0,6.0,88,0.00,,,0.00,Wunderground v.1.15,2013-05-16 13:15:00,
2013-05-16 09:20:00,59.7,55.8,29.77,WSW,255,3.0,3.0,87,0.00,,,0.00,Wunderground v.1.15,2013-05-16 13:20:00,
2013-05-16 09:25:00,60.1,56.2,29.77,SSW,207,2.0,3.0,87,0.00,,,0.00,Wunderground v.1.15,2013-05-16 13:25:00,
2013-05-16 09:30:00,60.6,56.4,29.78,South,187,1.0,1.0,86,0.00,,,0.00,Wunderground v.1.15,2013-05-16 13:30:00,
2013-05-16 09:35:00,61.1,56.6,29.78,SW,218,1.0,3.0,85,0.00,,,0.00,Wunderground v.1.15,2013-05-16 13:35:00,
2013-05-16 09:40:00,61.1,56.6,29.78,SSW,208,2.0,2.0,85,0.00,,,0.00,Wunderground v.1.15,2013-05-16 13:40:00,
2013-05-16 09:45:00,60.9,56.4,29.78,SSW,197,2.0,2.0,85,0.00,,,0.00,Wunderground v.1.15,2013-05-16 13:45:00,
2013-05-16 09:50:00,60.8,56.3,29.78,SSW,207,2.0,2.0,85,0.00,,,0.00,Wunderground v.1.15,2013-05-16 13:50:00,
2013-05-16 09:55:00,60.8,56.3,29.78,SSW,207,2.0,2.0,85,0.00,,,0.00,Wunderground v.1.15,2013-05-16 13:55:00,
2013-05-16 10:00:00,60.6,56.1,29.78,WSW,246,3.0,4.0,85,0.00,,,0.00,Wunderground v.1.15,2013-05-16 14:00:00,
2013-05-16 10:05:00,60.3,56.1,29.78,SW,221,3.0,4.0,86,0.00,,,0.00,Wunderground v.1.15,2013-05-16 14:05:00,
2013-05-16 10:15:00,60.2,56.3,29.78,SSE,163,4.0,9.0,87,0.00,,,0.00,Wunderground v.1.15,2013-05-16 14:15:00,